Pagina principale
METAR-TAF:

METAR-TAF

Aeroporti :

Aeroporto di Bologna-Borgo Panigale

Bologna, Italia

latitudine: 44-32N, longitudine: 011-18E, altezza: 36 m

Osservazione

Il bollettino è stato emesso 35 minuti fa, alle 22:50 UTC
Vento 4 kt da sud
Temperature 15°C
Umidità 67%
Pressione 1007 hPa
Visibilità 10 km o più
nessuna nube inferiore a 1500 m e nessun cumulonembo

METAR: LIPE 152250Z 18004KT CAVOK 15/09 Q1007

Ora: 01:25 (23:25 UTC)

Previsione

Il bollettino è stato emesso 6 ore e 25 minuti fa, alle 17:00 UTC
Previsione valida dal 15 alle 18 UTC al 16 alle 18 UTC
Vento 10 kt da sud/sud-ovest
Visibilità 10 km o più
Poco nuvoloso ad un'altezza di 5000 ft
Evoluzione graduale
dal 15 alle 21 UTC al 15 alle 23 UTC
Vento 5 kt da direzioni variabili

TAF: LIPE 151700Z 1518/1618 20010KT 9999 FEW050 BECMG 1521/1523 VRB05KT

Osservazioni e previsioni meteorologiche di più di 4000 aeroporti (messaggi METAR e TAF).

Le stazioni disponibili sono rappresentate dai dischi gialli e rossi sulla carta.

Puntare il mouse per vedere il nome della stazione.

Clicca sopra per visualizzare le osservazioni e previsioni meteorologiche.

Per cambiare la mappa : fare clic sui pulsanti verdi con una croce nera per ingrandire, il pulsante verde con un trattino per diminuire, o sulla freccia verde per le mappe adiacenti.


METAR-TAF: